Time;durP1;ratioP1;P1;durP2;ratioP2;P2;SDS_P1;SDS_P2;PMS_P1;PMS_P2;Temp;Humidity;BMP_temperature;BMP_pressure;BME280_temperature;BME280_humidity;BME280_pressure;Samples;Min_cycle;Max_cycle;Signal;HPM_P1;HPM_P2
2023/07/14 00:00:32;;;;;;;9.43;6.50;;;;;;;25.27;71.95;94608.91;5109541;28;20220;-44
2023/07/14 00:03:00;;;;;;;10.95;6.07;;;;;;;25.20;71.96;94595.94;5095519;28;20626;-45
2023/07/14 00:05:29;;;;;;;11.00;5.88;;;;;;;25.22;71.91;94604.34;5089260;28;20190;-45
2023/07/14 00:07:57;;;;;;;8.35;6.70;;;;;;;25.21;72.22;94597.50;5089433;28;20252;-45
2023/07/14 00:10:30;;;;;;;11.27;6.88;;;;;;;25.17;72.58;94604.25;5088959;28;20197;-44
2023/07/14 00:12:58;;;;;;;8.32;6.18;;;;;;;25.14;73.06;94603.91;5089362;28;20212;-45
2023/07/14 00:15:26;;;;;;;13.68;6.60;;;;;;;25.09;73.46;94594.13;5089436;28;20185;-45
2023/07/14 00:17:56;;;;;;;10.48;6.30;;;;;;;25.08;73.19;94589.91;5089328;28;20197;-43
2023/07/14 00:20:24;;;;;;;7.80;6.97;;;;;;;25.07;73.61;94588.28;5089144;28;20218;-44
2023/07/14 00:22:52;;;;;;;12.77;6.13;;;;;;;25.05;73.61;94587.75;5089364;28;20247;-43
2023/07/14 00:25:22;;;;;;;10.23;6.45;;;;;;;25.00;74.06;94579.78;5089711;28;20656;-44
2023/07/14 00:27:50;;;;;;;12.77;6.28;;;;;;;24.94;74.34;94578.06;5092879;28;20403;-46
2023/07/14 00:30:20;;;;;;;10.27;6.70;;;;;;;24.94;74.93;94584.09;5092865;28;20232;-46
2023/07/14 00:32:48;;;;;;;17.00;6.82;;;;;;;24.89;74.55;94577.97;5092610;28;20284;-43
2023/07/14 00:35:23;;;;;;;12.88;6.88;;;;;;;24.87;75.04;94572.16;5092765;28;20721;-43
2023/07/14 00:37:51;;;;;;;11.45;6.30;;;;;;;24.81;75.18;94575.69;5092418;28;20189;-45
2023/07/14 00:40:21;;;;;;;12.07;6.20;;;;;;;24.83;75.33;94582.31;5092956;28;20282;-45
2023/07/14 00:42:53;;;;;;;11.85;6.28;;;;;;;24.65;75.19;94571.94;5094099;28;20626;-44
2023/07/14 00:45:22;;;;;;;12.15;6.53;;;;;;;24.85;75.72;94601.19;5093086;28;20181;-44
2023/07/14 00:47:52;;;;;;;15.32;7.03;;;;;;;24.75;75.70;94614.03;5092602;28;20181;-44
2023/07/14 00:50:30;;;;;;;11.63;6.97;;;;;;;24.74;75.56;94634.19;5092566;28;20190;-44
2023/07/14 00:52:59;;;;;;;9.65;6.80;;;;;;;24.72;76.32;94638.03;5092346;28;20193;-44
2023/07/14 00:55:35;;;;;;;9.05;6.78;;;;;;;24.65;76.48;94639.94;5092566;28;20213;-43
2023/07/14 00:58:03;;;;;;;16.92;7.47;;;;;;;24.64;76.67;94643.59;5092242;28;20628;-44
2023/07/14 01:00:31;;;;;;;17.52;7.38;;;;;;;24.62;76.23;94656.09;5092277;28;20226;-43
2023/07/14 01:02:58;;;;;;;11.98;7.30;;;;;;;24.60;76.18;94668.59;5091871;28;20194;-44
2023/07/14 01:05:27;;;;;;;11.23;7.30;;;;;;;24.45;76.66;94651.53;5092477;28;20189;-45
2023/07/14 01:07:55;;;;;;;15.10;7.70;;;;;;;24.53;76.95;94671.34;5092183;28;20283;-44
2023/07/14 01:10:26;;;;;;;11.90;7.18;;;;;;;24.51;76.67;94670.75;5092227;28;20678;-44
2023/07/14 01:12:58;;;;;;;12.88;8.68;;;;;;;24.51;76.86;94668.13;5091965;28;20190;-45
2023/07/14 01:15:25;;;;;;;11.80;8.15;;;;;;;24.50;76.91;94669.94;5092042;28;20280;-44
2023/07/14 01:17:54;;;;;;;8.98;7.15;;;;;;;24.51;76.73;94670.75;5092011;28;20673;-45
2023/07/14 01:20:21;;;;;;;9.68;7.25;;;;;;;24.51;76.89;94658.47;5092107;28;20290;-45
2023/07/14 01:23:01;;;;;;;11.65;7.28;;;;;;;24.51;77.20;94655.84;5092066;28;20272;-45
2023/07/14 01:25:41;;;;;;;11.55;7.68;;;;;;;24.49;77.62;94642.22;5092139;28;20257;-44
2023/07/14 01:28:11;;;;;;;10.93;7.40;;;;;;;24.44;77.27;94631.66;5091662;28;20204;-44
2023/07/14 01:30:39;;;;;;;9.50;7.53;;;;;;;24.25;77.93;94604.75;5091811;28;20185;-45
2023/07/14 01:33:11;;;;;;;18.33;7.53;;;;;;;24.41;77.64;94639.13;5091736;28;20204;-45
2023/07/14 01:35:41;;;;;;;14.18;7.60;;;;;;;24.31;77.83;94628.38;5091955;28;20190;-46
2023/07/14 01:38:09;;;;;;;9.90;7.05;;;;;;;24.31;77.75;94628.38;5091735;28;20225;-44
2023/07/14 01:40:36;;;;;;;10.40;7.75;;;;;;;24.11;77.93;94599.94;5091698;28;20225;-44
2023/07/14 01:43:05;;;;;;;12.00;7.93;;;;;;;24.27;77.97;94623.63;5091219;28;20193;-44
2023/07/14 01:45:42;;;;;;;14.85;7.78;;;;;;;24.19;77.80;94603.03;5091433;28;20228;-43
2023/07/14 01:48:13;;;;;;;10.73;7.05;;;;;;;24.23;78.12;94616.47;5091101;28;20189;-44
2023/07/14 01:50:45;;;;;;;15.35;8.60;;;;;;;24.24;78.26;94605.78;5091357;28;20628;-43
2023/07/14 01:53:17;;;;;;;15.75;7.43;;;;;;;24.23;77.89;94609.41;5091115;28;20243;-43
2023/07/14 01:55:47;;;;;;;10.82;8.30;;;;;;;24.16;78.09;94613.13;5091024;28;20185;-44
2023/07/14 01:58:17;;;;;;;11.82;8.18;;;;;;;24.21;77.65;94623.72;5091222;28;20198;-44
2023/07/14 02:00:48;;;;;;;10.55;7.35;;;;;;;24.27;77.55;94633.28;5091069;28;20266;-44
2023/07/14 02:03:19;;;;;;;14.20;8.30;;;;;;;24.26;77.32;94636.91;5091010;28;20182;-43
2023/07/14 02:05:46;;;;;;;10.90;7.18;;;;;;;24.33;78.26;94652.50;5091176;28;20200;-43
2023/07/14 02:08:24;;;;;;;13.20;7.28;;;;;;;24.31;78.27;94660.56;5090583;28;20194;-44
2023/07/14 02:10:51;;;;;;;14.60;8.05;;;;;;;24.18;78.63;94660.72;5090868;28;20217;-44
2023/07/14 02:13:19;;;;;;;11.68;7.95;;;;;;;24.20;78.55;94667.34;5090831;28;20190;-43
2023/07/14 02:15:48;;;;;;;15.02;8.82;;;;;;;24.25;78.09;94677.91;5091259;28;20544;-43
2023/07/14 02:18:20;;;;;;;10.40;7.68;;;;;;;24.29;78.22;94678.28;5090601;28;20190;-43
2023/07/14 02:20:49;;;;;;;12.93;7.85;;;;;;;24.29;78.01;94694.75;5090606;28;20683;-45
2023/07/14 02:23:20;;;;;;;11.82;7.75;;;;;;;24.25;77.55;94708.50;5090672;28;20197;-44
2023/07/14 02:26:04;;;;;;;15.95;7.32;;;;;;;24.22;77.99;94724.59;5091009;28;20375;-44
2023/07/14 02:28:30;;;;;;;13.02;7.55;;;;;;;24.22;77.93;94732.44;5090631;28;20229;-46
2023/07/14 02:31:10;;;;;;;12.05;7.35;;;;;;;24.18;78.23;94723.44;5090420;28;20634;-43
2023/07/14 02:33:41;;;;;;;10.20;7.05;;;;;;;24.07;78.32;94706.72;5090728;28;20189;-43
2023/07/14 02:36:19;;;;;;;12.70;7.65;;;;;;;23.74;78.23;94670.56;5091601;28;20621;-44
2023/07/14 02:38:46;;;;;;;11.35;7.53;;;;;;;24.17;77.13;94742.78;5090570;28;20182;-43
2023/07/14 02:41:17;;;;;;;11.68;7.63;;;;;;;24.11;76.97;94751.50;5090086;28;20221;-43
2023/07/14 02:43:48;;;;;;;11.85;7.35;;;;;;;24.10;77.22;94752.53;5090416;28;20239;-43
2023/07/14 02:46:22;;;;;;;11.35;8.05;;;;;;;24.12;77.14;94742.63;5090061;28;20194;-44
2023/07/14 02:48:51;;;;;;;11.18;7.43;;;;;;;24.07;77.20;94745.13;5089557;28;20193;-45
2023/07/14 02:51:18;;;;;;;14.25;8.15;;;;;;;24.12;77.27;94753.09;5089999;28;20204;-45
2023/07/14 02:53:45;;;;;;;10.20;7.68;;;;;;;24.11;77.28;94752.28;5090468;28;20186;-43
2023/07/14 02:56:11;;;;;;;12.35;7.57;;;;;;;24.14;76.69;94746.63;5089940;28;20648;-45
2023/07/14 02:58:38;;;;;;;7.60;6.82;;;;;;;24.18;76.71;94747.78;5090424;28;20197;-43
2023/07/14 03:01:06;;;;;;;11.70;7.13;;;;;;;24.18;76.75;94744.34;5089827;28;20229;-44
2023/07/14 03:03:35;;;;;;;10.18;7.57;;;;;;;24.20;76.63;94743.13;5090437;28;20262;-45
2023/07/14 03:06:02;;;;;;;8.52;6.85;;;;;;;24.22;76.21;94745.50;5090001;28;20645;-45
2023/07/14 03:08:29;;;;;;;13.35;8.15;;;;;;;24.25;75.36;94748.50;5089643;28;20196;-44
2023/07/14 03:10:57;;;;;;;13.77;6.93;;;;;;;24.23;74.72;94726.22;5089948;28;20186;-44
2023/07/14 03:13:25;;;;;;;9.98;7.25;;;;;;;24.40;73.89;94747.34;5089558;28;20665;-45
2023/07/14 03:15:51;;;;;;;11.98;6.90;;;;;;;24.48;73.01;94750.44;5089873;28;20248;-45
2023/07/14 03:18:18;;;;;;;11.88;7.65;;;;;;;24.55;72.02;94750.34;5089460;28;20186;-43
2023/07/14 03:20:47;;;;;;;15.32;7.63;;;;;;;24.63;71.43;94752.63;5089888;28;20232;-45
2023/07/14 03:23:14;;;;;;;11.07;7.55;;;;;;;24.73;69.59;94757.31;5089426;28;20193;-44
2023/07/14 03:25:41;;;;;;;10.57;7.10;;;;;;;24.89;68.47;94758.50;5089896;28;20186;-44
2023/07/14 03:28:08;;;;;;;9.93;6.45;;;;;;;24.99;68.04;94763.97;5089366;28;20273;-43
2023/07/14 03:30:39;;;;;;;19.50;7.55;;;;;;;25.02;68.00;94771.38;5090003;28;20200;-43
2023/07/14 03:33:06;;;;;;;9.68;6.43;;;;;;;25.12;67.56;94774.25;5089710;28;20269;-43
2023/07/14 03:35:33;;;;;;;12.52;7.00;;;;;;;25.21;67.02;94772.88;5089586;28;20679;-45
2023/07/14 03:38:01;;;;;;;8.25;6.88;;;;;;;25.29;67.09;94774.38;5089529;28;20584;-43
2023/07/14 03:40:28;;;;;;;11.43;6.78;;;;;;;25.22;66.92;94750.94;5089654;28;20230;-44
2023/07/14 03:42:55;;;;;;;9.55;7.70;;;;;;;25.45;66.45;94780.78;5089664;28;20665;-43
2023/07/14 03:45:22;;;;;;;8.45;6.65;;;;;;;25.52;65.72;94776.22;5089512;28;20182;-43
2023/07/14 03:47:49;;;;;;;11.88;7.35;;;;;;;25.58;65.40;94764.81;5089804;28;20263;-44
2023/07/14 03:50:16;;;;;;;16.63;7.28;;;;;;;25.72;64.50;94778.47;5089197;28;20200;-43
2023/07/14 03:52:43;;;;;;;11.40;7.47;;;;;;;25.77;63.13;94781.22;5089557;28;20267;-44
2023/07/14 03:55:12;;;;;;;9.77;7.10;;;;;;;25.93;61.68;94782.34;5089137;28;20201;-46
2023/07/14 03:57:39;;;;;;;11.07;6.97;;;;;;;26.06;60.68;94784.72;5089372;28;20197;-44
2023/07/14 04:00:14;;;;;;;12.48;7.25;;;;;;;26.19;60.18;94786.28;5091244;28;20193;-45
2023/07/14 04:02:41;;;;;;;10.27;6.72;;;;;;;26.31;59.25;94788.88;5093704;28;20188;-44
2023/07/14 04:05:09;;;;;;;9.35;6.88;;;;;;;26.44;57.44;94802.53;5093320;28;20201;-44
2023/07/14 04:07:37;;;;;;;12.70;7.47;;;;;;;26.55;54.64;94813.19;5093787;28;20178;-43
2023/07/14 04:10:04;;;;;;;13.27;7.97;;;;;;;26.68;54.44;94813.72;5093335;28;20186;-46
2023/07/14 04:12:33;;;;;;;19.35;8.75;;;;;;;26.64;55.72;94807.38;5093498;28;20186;-44
2023/07/14 04:15:01;;;;;;;11.80;7.20;;;;;;;26.71;55.85;94805.38;5093299;28;21238;-43
2023/07/14 04:17:28;;;;;;;12.38;8.00;;;;;;;26.94;54.96;94838.59;5093060;28;20714;-44
2023/07/14 04:19:55;;;;;;;11.75;8.05;;;;;;;27.04;54.03;94851.09;5092808;28;20186;-44
2023/07/14 04:22:22;;;;;;;14.63;7.38;;;;;;;27.05;53.28;94852.69;5092909;28;20221;-45
2023/07/14 04:24:49;;;;;;;17.63;7.22;;;;;;;27.07;53.19;94857.69;5092745;28;20201;-43
2023/07/14 04:27:16;;;;;;;14.13;8.35;;;;;;;27.09;53.25;94860.91;5094099;28;20573;-45
2023/07/14 04:29:44;;;;;;;13.27;7.38;;;;;;;27.17;54.03;94865.78;5092946;28;20229;-44
2023/07/14 04:32:11;;;;;;;16.20;8.10;;;;;;;27.24;54.04;94874.31;5092850;28;20541;-45
2023/07/14 04:34:38;;;;;;;9.93;7.38;;;;;;;27.32;54.28;94873.13;5093053;28;20254;-44
2023/07/14 04:37:05;;;;;;;13.88;8.27;;;;;;;27.40;54.44;94875.34;5092535;28;20613;-43
2023/07/14 04:39:32;;;;;;;15.40;7.70;;;;;;;27.42;54.69;94881.19;5092748;28;20190;-44
2023/07/14 04:42:00;;;;;;;9.77;7.53;;;;;;;27.60;54.56;94899.34;5092423;28;20262;-44
2023/07/14 04:44:26;;;;;;;15.98;7.63;;;;;;;27.62;55.14;94893.84;5092742;28;20177;-43
2023/07/14 04:46:55;;;;;;;10.32;7.40;;;;;;;27.66;56.03;94901.00;5092240;28;20190;-43
2023/07/14 04:49:23;;;;;;;12.15;8.05;;;;;;;27.74;56.11;94913.78;5092581;28;20299;-44
2023/07/14 04:51:50;;;;;;;15.07;6.82;;;;;;;27.86;56.78;94916.31;5092662;28;20194;-44
2023/07/14 04:54:17;;;;;;;14.10;7.70;;;;;;;27.88;57.25;94913.44;5092740;28;20201;-44
2023/07/14 04:56:44;;;;;;;16.45;7.55;;;;;;;28.00;56.91;94916.78;5092303;28;20276;-43
2023/07/14 04:59:11;;;;;;;14.75;7.78;;;;;;;28.08;56.57;94923.47;5092453;28;20194;-45
2023/07/14 05:01:38;;;;;;;13.52;8.32;;;;;;;28.13;57.01;94913.81;5091898;28;20221;-44
2023/07/14 05:04:06;;;;;;;11.63;7.82;;;;;;;28.24;56.43;94931.34;5092354;28;20193;-44
2023/07/14 05:06:33;;;;;;;12.85;7.93;;;;;;;28.33;56.78;94929.09;5092016;28;20292;-45
2023/07/14 05:09:00;;;;;;;12.48;7.90;;;;;;;28.39;56.60;94928.16;5092187;28;20700;-45
2023/07/14 05:11:27;;;;;;;12.10;8.23;;;;;;;28.45;56.60;94924.56;5091575;28;20185;-44
2023/07/14 05:13:54;;;;;;;17.90;8.18;;;;;;;28.58;56.19;94920.75;5091808;28;20235;-43
2023/07/14 05:16:21;;;;;;;16.27;8.43;;;;;;;28.77;55.81;94928.34;5092051;28;20645;-43
2023/07/14 05:18:48;;;;;;;9.65;6.97;;;;;;;28.97;55.30;94936.50;5091860;28;20185;-42
2023/07/14 05:21:16;;;;;;;13.13;7.80;;;;;;;29.21;53.66;94934.38;5091810;28;20220;-44
2023/07/14 05:23:43;;;;;;;9.52;7.82;;;;;;;29.42;53.45;94930.13;5091544;28;20204;-44
2023/07/14 05:26:10;;;;;;;16.45;7.97;;;;;;;29.77;51.59;94931.50;5091898;28;20201;-44
2023/07/14 05:28:37;;;;;;;11.88;7.65;;;;;;;29.97;51.13;94929.03;5091483;28;20290;-45
2023/07/14 05:31:06;;;;;;;12.90;7.70;;;;;;;30.19;51.60;94937.63;5092037;28;20189;-44
2023/07/14 05:33:32;;;;;;;17.27;8.63;;;;;;;30.51;50.87;94931.47;5091422;28;20656;-43
2023/07/14 05:36:00;;;;;;;13.93;7.93;;;;;;;30.80;51.62;94939.81;5091955;28;20577;-46
2023/07/14 05:38:29;;;;;;;14.50;7.97;;;;;;;31.03;50.26;94935.13;5091299;28;20189;-44
2023/07/14 05:40:56;;;;;;;8.70;6.75;;;;;;;31.09;50.47;94937.53;5091450;28;20703;-43
2023/07/14 05:43:24;;;;;;;11.85;6.90;;;;;;;31.18;50.58;94935.97;5091127;28;20190;-44
2023/07/14 05:45:51;;;;;;;14.82;7.38;;;;;;;31.16;50.26;94932.00;5091784;28;20239;-43
2023/07/14 05:48:18;;;;;;;11.80;7.05;;;;;;;31.37;49.90;94956.66;5091931;28;20181;-46
2023/07/14 05:50:45;;;;;;;8.02;6.43;;;;;;;31.35;50.53;94950.84;5091333;28;20186;-43
2023/07/14 05:53:12;;;;;;;12.20;6.53;;;;;;;31.63;50.27;94947.69;5092187;28;20217;-46
2023/07/14 05:55:40;;;;;;;13.05;7.97;;;;;;;31.96;50.32;94948.25;5091752;28;20273;-45
2023/07/14 05:58:07;;;;;;;10.45;6.95;;;;;;;32.23;48.62;94932.09;5091780;28;20194;-44
2023/07/14 06:00:38;;;;;;;9.82;7.38;;;;;;;32.56;48.22;94945.81;5091248;28;20640;-44
2023/07/14 06:03:06;;;;;;;13.68;7.20;;;;;;;32.64;47.69;94947.88;5091411;28;20571;-45
2023/07/14 06:05:32;;;;;;;10.60;6.93;;;;;;;32.59;47.68;94939.97;5091183;28;20193;-46
2023/07/14 06:08:00;;;;;;;11.45;7.47;;;;;;;32.44;48.07;94931.00;5091543;28;20194;-45
2023/07/14 06:10:26;;;;;;;13.77;6.88;;;;;;;32.60;47.78;94933.59;5091016;28;20190;-45
2023/07/14 06:12:54;;;;;;;13.50;7.53;;;;;;;32.58;48.11;94941.81;5091238;28;20208;-44
2023/07/14 06:15:21;;;;;;;11.10;7.03;;;;;;;32.44;48.06;94933.66;5090805;28;20182;-46
2023/07/14 06:17:48;;;;;;;10.50;7.20;;;;;;;32.28;48.84;94931.28;5091621;28;20243;-45
2023/07/14 06:20:15;;;;;;;9.40;6.93;;;;;;;32.34;48.72;94931.00;5090922;28;20193;-44
2023/07/14 06:22:42;;;;;;;11.27;7.43;;;;;;;32.57;48.68;94931.50;5090206;28;20263;-46
2023/07/14 06:25:09;;;;;;;16.00;8.40;;;;;;;32.84;47.62;94926.63;5090635;28;20753;-45
2023/07/14 06:27:36;;;;;;;10.40;7.47;;;;;;;32.81;47.45;94924.50;5090784;28;20185;-44
2023/07/14 06:30:04;;;;;;;9.50;7.13;;;;;;;32.67;48.12;94929.59;5090582;28;20252;-45
2023/07/14 06:32:31;;;;;;;12.23;7.40;;;;;;;32.79;48.10;94933.81;5090503;28;20297;-45
2023/07/14 06:34:58;;;;;;;11.93;6.85;;;;;;;32.96;47.36;94932.41;5090602;28;20193;-45
2023/07/14 06:37:25;;;;;;;12.43;7.07;;;;;;;33.27;46.97;94934.13;5090485;28;20585;-45
2023/07/14 06:39:52;;;;;;;13.50;8.10;;;;;;;33.52;46.40;94923.38;5090876;28;20190;-45
2023/07/14 06:42:19;;;;;;;12.07;7.50;;;;;;;33.54;46.33;94931.84;5090497;28;20209;-45
2023/07/14 06:44:46;;;;;;;13.95;7.50;;;;;;;33.62;46.60;94925.16;5090916;28;20185;-45
2023/07/14 06:47:15;;;;;;;15.18;7.93;;;;;;;33.81;46.30;94934.03;5090211;28;20714;-46
2023/07/14 06:49:42;;;;;;;12.35;6.45;;;;;;;34.09;45.79;94932.47;5090285;28;20638;-43
2023/07/14 06:52:09;;;;;;;13.50;6.95;;;;;;;34.29;44.89;94934.16;5090038;28;20201;-45
2023/07/14 06:54:36;;;;;;;11.10;7.32;;;;;;;33.86;44.92;94867.66;5090271;28;20194;-43
2023/07/14 06:57:03;;;;;;;9.85;6.88;;;;;;;34.11;44.97;94937.50;5090380;28;20185;-44
2023/07/14 06:59:29;;;;;;;14.95;7.40;;;;;;;33.98;44.85;94936.28;5090602;28;20193;-45
2023/07/14 07:01:56;;;;;;;13.35;6.72;;;;;;;33.97;45.13;94934.72;5090393;28;20221;-45
2023/07/14 07:04:26;;;;;;;15.63;6.95;;;;;;;33.98;44.99;94932.84;5089883;28;20193;-45
2023/07/14 07:06:53;;;;;;;12.02;6.70;;;;;;;33.91;45.44;94939.25;5090338;28;20201;-44
2023/07/14 07:09:20;;;;;;;10.32;7.95;;;;;;;34.03;45.01;94940.78;5090130;28;20182;-45
2023/07/14 07:11:47;;;;;;;14.05;6.90;;;;;;;33.92;45.62;94945.34;5090225;28;20189;-45
2023/07/14 07:14:14;;;;;;;12.75;7.07;;;;;;;34.07;45.24;94939.94;5089801;28;20197;-44
2023/07/14 07:16:40;;;;;;;9.32;7.18;;;;;;;34.12;45.27;94939.09;5090080;28;20193;-46
2023/07/14 07:19:07;;;;;;;12.48;7.75;;;;;;;34.11;45.58;94932.19;5089636;28;20193;-45
2023/07/14 07:21:35;;;;;;;9.43;7.10;;;;;;;34.19;45.68;94940.34;5089941;28;20189;-45
2023/07/14 07:24:05;;;;;;;13.63;7.13;;;;;;;34.32;45.05;94940.75;5089792;28;20189;-44
2023/07/14 07:26:32;;;;;;;11.73;7.13;;;;;;;34.49;44.65;94945.66;5089990;28;20280;-45
2023/07/14 07:28:58;;;;;;;10.13;6.80;;;;;;;34.64;44.53;94929.56;5089760;28;20234;-45
2023/07/14 07:31:25;;;;;;;11.32;6.88;;;;;;;34.74;44.60;94926.78;5089804;28;20190;-44
2023/07/14 07:33:52;;;;;;;9.73;7.00;;;;;;;34.82;44.45;94925.34;5088987;28;20564;-43
2023/07/14 07:36:19;;;;;;;12.82;6.57;;;;;;;34.87;44.40;94931.38;5089746;28;20810;-44
2023/07/14 07:38:49;;;;;;;9.63;6.70;;;;;;;34.87;44.24;94926.06;5089649;28;20608;-44
2023/07/14 07:41:18;;;;;;;11.10;6.65;;;;;;;34.83;44.56;94924.28;5089996;28;20189;-46
2023/07/14 07:43:45;;;;;;;14.45;7.15;;;;;;;34.90;43.89;94911.44;5089833;28;20221;-44
2023/07/14 07:46:12;;;;;;;7.10;6.40;;;;;;;35.06;43.28;94927.97;5089419;28;20197;-45
2023/07/14 07:48:42;;;;;;;11.32;6.60;;;;;;;34.91;43.80;94918.31;5089767;28;20181;-44
2023/07/14 07:51:09;;;;;;;14.68;6.93;;;;;;;34.78;43.68;94903.06;5089525;28;20194;-45
2023/07/14 07:53:36;;;;;;;12.32;6.93;;;;;;;34.65;44.43;94909.88;5089604;28;20190;-44
2023/07/14 07:56:04;;;;;;;7.82;6.07;;;;;;;34.70;44.43;94904.50;5089162;28;20182;-44
2023/07/14 07:58:31;;;;;;;11.27;6.75;;;;;;;34.66;44.21;94911.44;5089734;28;20244;-43
2023/07/14 08:01:01;;;;;;;9.88;6.93;;;;;;;34.57;44.25;94907.84;5088845;28;20420;-44
2023/07/14 08:03:28;;;;;;;8.93;6.38;;;;;;;34.67;44.69;94910.38;5089733;28;20213;-44
2023/07/14 08:06:00;;;;;;;10.88;6.57;;;;;;;34.84;43.67;94907.25;5089103;28;20193;-44
2023/07/14 08:08:27;;;;;;;10.93;7.07;;;;;;;34.77;44.03;94902.28;5089219;28;20219;-45
2023/07/14 08:10:54;;;;;;;9.07;6.38;;;;;;;34.84;43.62;94912.56;5090892;28;20181;-44
2023/07/14 08:13:24;;;;;;;11.15;7.05;;;;;;;34.93;43.44;94901.03;5089267;28;20185;-46
2023/07/14 08:15:52;;;;;;;7.95;6.40;;;;;;;35.02;43.87;94901.19;5089095;28;20220;-46
2023/07/14 08:18:18;;;;;;;12.50;6.78;;;;;;;35.15;43.06;94886.41;5089431;28;20193;-45
2023/07/14 08:20:45;;;;;;;9.52;6.50;;;;;;;35.30;42.70;94891.47;5089064;28;20193;-46
2023/07/14 08:23:15;;;;;;;10.27;6.60;;;;;;;35.30;42.23;94891.47;5089492;28;20209;-46
2023/07/14 08:25:42;;;;;;;13.75;6.95;;;;;;;35.42;41.93;94891.06;5088870;28;20288;-44
2023/07/14 08:28:10;;;;;;;10.68;6.88;;;;;;;35.29;41.96;94883.81;5089017;28;20190;-44
2023/07/14 08:30:38;;;;;;;14.68;6.93;;;;;;;35.17;41.88;94870.94;5089180;28;20228;-46
2023/07/14 08:33:05;;;;;;;11.02;6.07;;;;;;;35.23;42.47;94887.59;5088931;28;20702;-45
2023/07/14 08:35:32;;;;;;;9.75;6.35;;;;;;;35.19;42.57;94869.59;5088862;28;20193;-44
2023/07/14 08:37:59;;;;;;;9.05;6.85;;;;;;;35.34;41.60;94886.38;5088912;28;20228;-45
2023/07/14 08:40:31;;;;;;;10.95;6.50;;;;;;;35.31;41.62;94874.44;5089326;28;20189;-45
2023/07/14 08:43:25;;;;;;;10.45;6.38;;;;;;;35.33;41.92;94869.63;5088892;28;20259;-45
2023/07/14 08:45:58;;;;;;;12.38;7.10;;;;;;;35.30;41.48;94856.91;5089022;28;20216;-44
2023/07/14 08:48:37;;;;;;;10.13;7.00;;;;;;;35.52;41.58;94874.94;5092950;28;20185;-48
2023/07/14 08:51:18;;;;;;;10.48;5.97;;;;;;;35.67;40.88;94881.91;5092513;28;20263;-45
2023/07/14 08:53:50;;;;;;;13.63;6.88;;;;;;;35.66;40.32;94873.09;5092806;28;20201;-45
2023/07/14 08:56:20;;;;;;;9.50;6.28;;;;;;;35.71;40.27;94871.44;5092533;28;20201;-43
2023/07/14 08:58:49;;;;;;;9.50;7.22;;;;;;;35.64;40.31;94855.88;5092722;28;20187;-45
2023/07/14 09:01:28;;;;;;;11.57;7.45;;;;;;;35.69;40.61;94875.19;5092389;28;20186;-44
2023/07/14 09:04:00;;;;;;;9.85;7.30;;;;;;;35.62;40.49;94852.69;5092278;28;20229;-44
2023/07/14 09:06:34;;;;;;;11.88;7.15;;;;;;;35.59;38.71;94869.28;5092344;28;20254;-46
2023/07/14 09:09:01;;;;;;;14.02;7.68;;;;;;;35.51;38.86;94864.59;5092290;28;20198;-45
2023/07/14 09:11:47;;;;;;;11.50;6.78;;;;;;;35.34;39.11;94863.22;5092548;28;20186;-44
2023/07/14 09:14:27;;;;;;;9.32;7.03;;;;;;;35.14;39.99;94864.31;5091406;28;20213;-44
2023/07/14 09:17:04;;;;;;;13.65;6.63;;;;;;;35.18;40.30;94862.66;5092179;28;20181;-44
2023/07/14 09:19:41;;;;;;;8.82;7.00;;;;;;;35.23;40.47;94861.00;5092151;28;20186;-44
2023/07/14 09:22:15;;;;;;;14.55;7.13;;;;;;;35.21;40.78;94847.22;5092078;28;20587;-43
2023/07/14 09:24:53;;;;;;;11.02;7.50;;;;;;;35.07;40.94;94829.34;5091523;28;20277;-44
2023/07/14 09:27:24;;;;;;;9.35;7.32;;;;;;;35.27;40.59;94838.06;5092171;28;20193;-45
2023/07/14 09:29:52;;;;;;;11.27;7.28;;;;;;;35.24;40.72;94833.34;5091572;28;20269;-45
2023/07/14 09:32:29;;;;;;;13.75;7.50;;;;;;;35.15;40.84;94838.53;5092102;28;20193;-46
2023/07/14 09:34:58;;;;;;;17.23;7.68;;;;;;;34.97;40.66;94845.41;5091545;28;20188;-45
2023/07/14 09:37:31;;;;;;;15.13;7.97;;;;;;;34.58;41.10;94829.72;5091636;28;20189;-45
2023/07/14 09:40:15;;;;;;;13.77;7.63;;;;;;;34.27;41.55;94843.34;5091601;28;20194;-45
2023/07/14 09:42:43;;;;;;;12.55;7.15;;;;;;;34.12;42.01;94828.38;5091628;28;20209;-45
2023/07/14 09:45:19;;;;;;;12.25;8.15;;;;;;;34.29;41.83;94838.56;5091685;28;20223;-45
2023/07/14 09:47:52;;;;;;;14.65;8.15;;;;;;;34.37;41.57;94837.13;5091314;28;20195;-45
2023/07/14 09:50:21;;;;;;;9.07;6.63;;;;;;;34.43;40.89;94820.06;5091491;28;20190;-46
2023/07/14 09:52:54;;;;;;;15.77;7.93;;;;;;;34.39;41.98;94822.50;5091121;28;20379;-44
2023/07/14 09:55:21;;;;;;;10.18;7.45;;;;;;;34.38;40.79;94823.56;5091556;28;20190;-45
2023/07/14 09:57:53;;;;;;;9.98;7.78;;;;;;;34.06;40.74;94802.16;5090729;28;20588;-44
2023/07/14 10:00:24;;;;;;;11.23;8.60;;;;;;;34.24;40.93;94824.53;5091613;28;20178;-46
2023/07/14 10:03:06;;;;;;;15.85;7.80;;;;;;;34.26;41.01;94817.09;5091264;28;20670;-45
2023/07/14 10:05:49;;;;;;;11.82;8.05;;;;;;;34.32;40.59;94810.63;5091451;28;20228;-46
2023/07/14 10:08:28;;;;;;;10.45;7.35;;;;;;;34.34;40.73;94811.16;5091012;28;20200;-46
2023/07/14 10:10:58;;;;;;;12.10;7.70;;;;;;;34.39;40.59;94800.44;5091232;28;20190;-45
2023/07/14 10:13:27;;;;;;;13.60;7.07;;;;;;;34.39;41.03;94800.44;5090861;28;20193;-45
2023/07/14 10:15:57;;;;;;;18.05;8.23;;;;;;;34.37;40.98;94798.09;5090994;28;20190;-44
2023/07/14 10:18:28;;;;;;;14.02;7.75;;;;;;;34.47;41.26;94794.53;5090737;28;20195;-44
2023/07/14 10:21:05;;;;;;;12.20;8.02;;;;;;;34.54;41.50;94788.84;5091112;28;20275;-45
2023/07/14 10:23:34;;;;;;;11.50;7.60;;;;;;;34.66;42.00;94795.31;5090661;28;20274;-46
2023/07/14 10:26:07;;;;;;;12.85;7.35;;;;;;;34.53;42.17;94792.59;5091234;28;20200;-45
2023/07/14 10:28:35;;;;;;;13.38;7.55;;;;;;;34.44;41.52;94795.84;5090726;28;20301;-47
2023/07/14 10:31:18;;;;;;;24.98;7.55;;;;;;;34.20;42.10;94779.19;5091183;28;20224;-45
2023/07/14 10:34:04;;;;;;;10.98;8.45;;;;;;;34.14;42.12;94783.75;5090709;28;20293;-45
2023/07/14 10:36:37;;;;;;;11.38;7.18;;;;;;;34.26;42.05;94772.72;5090542;28;20186;-45
2023/07/14 10:39:11;;;;;;;9.93;7.25;;;;;;;34.45;40.52;94780.72;5090707;28;20284;-44
2023/07/14 10:41:39;;;;;;;14.32;8.02;;;;;;;34.55;40.75;94777.97;5090852;28;20182;-45
2023/07/14 10:44:17;;;;;;;8.15;6.85;;;;;;;34.55;40.47;94779.84;5090657;28;20221;-44
2023/07/14 10:46:48;;;;;;;10.90;7.05;;;;;;;34.49;40.84;94776.44;5090174;28;20708;-45
2023/07/14 10:49:24;;;;;;;11.20;7.30;;;;;;;34.56;40.72;94779.53;5090594;28;20193;-45
2023/07/14 10:51:56;;;;;;;14.90;7.78;;;;;;;34.63;40.24;94779.16;5090362;28;20185;-44
2023/07/14 10:54:40;;;;;;;12.20;6.82;;;;;;;34.62;39.97;94775.72;5090853;28;20197;-45
2023/07/14 10:57:14;;;;;;;12.00;7.88;;;;;;;34.45;39.92;94741.66;5090457;28;20200;-45
2023/07/14 10:59:48;;;;;;;14.93;7.88;;;;;;;34.54;40.01;94760.41;5089909;28;20267;-44
2023/07/14 11:02:21;;;;;;;15.70;7.85;;;;;;;34.66;40.25;94763.44;5090230;28;20189;-46
2023/07/14 11:04:54;;;;;;;14.23;8.13;;;;;;;34.71;40.50;94765.22;5089988;28;20726;-46
2023/07/14 11:07:29;;;;;;;11.05;7.80;;;;;;;34.75;40.43;94760.13;5090265;28;20202;-45
2023/07/14 11:09:56;;;;;;;10.68;7.05;;;;;;;34.83;40.23;94762.94;5089308;28;20185;-45
2023/07/14 11:12:30;;;;;;;11.32;6.97;;;;;;;34.81;40.19;94759.78;5090205;28;20565;-45
2023/07/14 11:15:06;;;;;;;18.48;7.68;;;;;;;34.65;39.70;94758.44;5089785;28;20267;-45
2023/07/14 11:17:42;;;;;;;11.57;7.50;;;;;;;34.68;39.42;94763.19;5090146;28;20189;-43
2023/07/14 11:20:21;;;;;;;12.90;8.27;;;;;;;34.57;40.15;94756.41;5089848;28;20675;-45
2023/07/14 11:22:58;;;;;;;13.18;7.05;;;;;;;34.58;40.10;94752.66;5089518;28;20656;-44
2023/07/14 11:25:31;;;;;;;12.18;7.57;;;;;;;34.70;40.20;94748.50;5089677;28;20254;-44
2023/07/14 11:28:02;;;;;;;12.48;7.28;;;;;;;34.80;39.93;94765.38;5089906;28;20194;-46
2023/07/14 11:30:33;;;;;;;9.63;7.55;;;;;;;34.73;39.82;94754.34;5089517;28;20197;-45
2023/07/14 11:33:10;;;;;;;12.30;7.55;;;;;;;34.65;39.65;94755.78;5090032;28;20185;-45
2023/07/14 11:35:45;;;;;;;11.35;7.43;;;;;;;34.53;39.93;94750.88;5089972;28;20193;-45
2023/07/14 11:38:27;;;;;;;10.18;7.97;;;;;;;34.63;40.62;94749.94;5089640;28;20613;-45